sensor_id;sensor_type;location;lat;lon;timestamp;pressure;altitude;pressure_sealevel;temperature;humidity
64908;BME280;64365;-1.756;110.040;2023-01-31T00:00:00;102399.44;;;6.73;81.35
64908;BME280;64365;-1.756;110.040;2023-01-31T00:02:26;102404.72;;;6.73;81.12
64908;BME280;64365;-1.756;110.040;2023-01-31T00:04:53;102389.94;;;6.72;82.57
64908;BME280;64365;-1.756;110.040;2023-01-31T00:07:19;102394.53;;;6.80;82.94
64908;BME280;64365;-1.756;110.040;2023-01-31T00:09:46;102388.88;;;6.73;81.59
64908;BME280;64365;-1.756;110.040;2023-01-31T00:12:14;102395.44;;;6.76;81.87
64908;BME280;64365;-1.756;110.040;2023-01-31T00:14:40;102379.97;;;6.69;81.53
64908;BME280;64365;-1.756;110.040;2023-01-31T00:17:07;102382.81;;;6.72;81.59
64908;BME280;64365;-1.756;110.040;2023-01-31T00:19:34;102377.69;;;6.76;83.00
64908;BME280;64365;-1.756;110.040;2023-01-31T00:22:00;102351.38;;;6.71;82.43
64908;BME280;64365;-1.756;110.040;2023-01-31T00:24:27;102352.72;;;6.82;81.57
64908;BME280;64365;-1.756;110.040;2023-01-31T00:26:54;102325.66;;;6.63;80.26
64908;BME280;64365;-1.756;110.040;2023-01-31T00:29:23;102349.44;;;6.77;81.77
64908;BME280;64365;-1.756;110.040;2023-01-31T00:31:50;102336.03;;;6.73;79.95
64908;BME280;64365;-1.756;110.040;2023-01-31T00:34:17;102327.59;;;6.71;80.97
64908;BME280;64365;-1.756;110.040;2023-01-31T00:36:43;102296.63;;;6.63;81.63
64908;BME280;64365;-1.756;110.040;2023-01-31T00:39:10;102319.41;;;6.72;81.75
64908;BME280;64365;-1.756;110.040;2023-01-31T00:41:37;102320.53;;;6.80;81.60
64908;BME280;64365;-1.756;110.040;2023-01-31T00:44:04;102313.50;;;6.76;82.02
64908;BME280;64365;-1.756;110.040;2023-01-31T00:46:32;102313.50;;;6.76;80.79
64908;BME280;64365;-1.756;110.040;2023-01-31T00:48:59;102303.97;;;6.66;80.42
64908;BME280;64365;-1.756;110.040;2023-01-31T00:51:26;102304.06;;;6.61;79.68
64908;BME280;64365;-1.756;110.040;2023-01-31T00:53:53;102298.91;;;6.55;80.19
64908;BME280;64365;-1.756;110.040;2023-01-31T00:56:21;102295.75;;;6.53;80.97
64908;BME280;64365;-1.756;110.040;2023-01-31T00:58:49;102295.75;;;6.53;81.64
64908;BME280;64365;-1.756;110.040;2023-01-31T01:01:18;102295.75;;;6.53;80.88
64908;BME280;64365;-1.756;110.040;2023-01-31T01:03:47;102296.84;;;6.52;80.79
64908;BME280;64365;-1.756;110.040;2023-01-31T01:06:14;102294.22;;;6.52;80.75
64908;BME280;64365;-1.756;110.040;2023-01-31T01:08:41;102303.97;;;6.52;82.33
64908;BME280;64365;-1.756;110.040;2023-01-31T01:11:10;102294.78;;;6.49;82.52
64908;BME280;64365;-1.756;110.040;2023-01-31T01:13:37;102283.66;;;6.52;82.27
64908;BME280;64365;-1.756;110.040;2023-01-31T01:16:05;102286.72;;;6.32;80.28
64908;BME280;64365;-1.756;110.040;2023-01-31T01:18:32;102284.47;;;6.25;80.07
64908;BME280;64365;-1.756;110.040;2023-01-31T01:21:06;102291.97;;;6.09;80.60
64908;BME280;64365;-1.756;110.040;2023-01-31T01:23:32;102286.56;;;6.00;80.35
64908;BME280;64365;-1.756;110.040;2023-01-31T01:25:59;102291.66;;;5.97;80.67
64908;BME280;64365;-1.756;110.040;2023-01-31T01:28:26;102284.03;;;5.81;79.78
64908;BME280;64365;-1.756;110.040;2023-01-31T01:30:52;102293.31;;;5.79;79.92
64908;BME280;64365;-1.756;110.040;2023-01-31T01:33:19;102300.75;;;5.77;79.88
64908;BME280;64365;-1.756;110.040;2023-01-31T01:35:45;102295.94;;;5.65;81.04
64908;BME280;64365;-1.756;110.040;2023-01-31T01:38:13;102286.47;;;5.64;80.31
64908;BME280;64365;-1.756;110.040;2023-01-31T01:40:40;102302.97;;;5.55;80.71
64908;BME280;64365;-1.756;110.040;2023-01-31T01:43:09;102306.75;;;5.49;82.27
64908;BME280;64365;-1.756;110.040;2023-01-31T01:45:38;102314.56;;;5.54;81.93
64908;BME280;64365;-1.756;110.040;2023-01-31T01:48:06;102315.38;;;5.55;81.95
64908;BME280;64365;-1.756;110.040;2023-01-31T01:50:35;102308.91;;;5.47;81.99
64908;BME280;64365;-1.756;110.040;2023-01-31T01:53:09;102311.25;;;5.49;82.34
64908;BME280;64365;-1.756;110.040;2023-01-31T01:55:41;102323.28;;;5.55;81.99
64908;BME280;64365;-1.756;110.040;2023-01-31T01:58:12;102310.78;;;5.61;81.34
64908;BME280;64365;-1.756;110.040;2023-01-31T02:00:39;102310.19;;;5.64;81.58
64908;BME280;64365;-1.756;110.040;2023-01-31T02:03:06;102311.69;;;5.70;80.77
64908;BME280;64365;-1.756;110.040;2023-01-31T02:05:36;102309.91;;;5.65;80.62
64908;BME280;64365;-1.756;110.040;2023-01-31T02:08:03;102297.69;;;5.55;82.05
64908;BME280;64365;-1.756;110.040;2023-01-31T02:10:33;102312.22;;;5.53;83.49
64908;BME280;64365;-1.756;110.040;2023-01-31T02:13:04;102303.94;;;5.60;83.43
64908;BME280;64365;-1.756;110.040;2023-01-31T02:15:31;102304.72;;;5.60;82.91
64908;BME280;64365;-1.756;110.040;2023-01-31T02:17:58;102313.81;;;5.68;82.76
64908;BME280;64365;-1.756;110.040;2023-01-31T02:20:38;102290.97;;;5.63;82.58
64908;BME280;64365;-1.756;110.040;2023-01-31T02:26:43;102299.75;;;5.72;82.37
64908;BME280;64365;-1.756;110.040;2023-01-31T02:29:31;102302.41;;;5.72;82.32
64908;BME280;64365;-1.756;110.040;2023-01-31T02:32:34;102296.31;;;5.72;83.02
64908;BME280;64365;-1.756;110.040;2023-01-31T02:35:09;102283.03;;;5.77;82.82
64908;BME280;64365;-1.756;110.040;2023-01-31T02:37:43;102280.91;;;5.79;82.42
64908;BME280;64365;-1.756;110.040;2023-01-31T02:40:20;102272.50;;;5.77;82.00
64908;BME280;64365;-1.756;110.040;2023-01-31T02:42:51;102287.66;;;5.57;83.21
64908;BME280;64365;-1.756;110.040;2023-01-31T02:45:27;102271.81;;;5.57;82.43
64908;BME280;64365;-1.756;110.040;2023-01-31T02:48:10;102271.81;;;5.57;83.46
64908;BME280;64365;-1.756;110.040;2023-01-31T02:50:45;102266.63;;;5.52;84.00
64908;BME280;64365;-1.756;110.040;2023-01-31T02:53:19;102262.94;;;5.53;84.86
64908;BME280;64365;-1.756;110.040;2023-01-31T02:55:52;102266.25;;;5.59;84.64
64908;BME280;64365;-1.756;110.040;2023-01-31T02:58:39;102261.66;;;5.65;84.39
64908;BME280;64365;-1.756;110.040;2023-01-31T03:01:12;102268.00;;;5.78;86.16
64908;BME280;64365;-1.756;110.040;2023-01-31T03:03:42;102270.22;;;5.84;85.64
64908;BME280;64365;-1.756;110.040;2023-01-31T03:08:55;102274.34;;;5.90;86.49
64908;BME280;64365;-1.756;110.040;2023-01-31T03:11:26;102266.72;;;5.89;85.79
64908;BME280;64365;-1.756;110.040;2023-01-31T03:14:02;102251.56;;;5.95;85.62
64908;BME280;64365;-1.756;110.040;2023-01-31T03:16:35;102245.78;;;5.93;85.79
64908;BME280;64365;-1.756;110.040;2023-01-31T03:19:28;102244.72;;;5.94;86.35
64908;BME280;64365;-1.756;110.040;2023-01-31T03:22:02;102241.25;;;5.98;86.53
64908;BME280;64365;-1.756;110.040;2023-01-31T03:24:32;102255.41;;;6.02;86.30
64908;BME280;64365;-1.756;110.040;2023-01-31T03:27:00;102246.00;;;6.10;86.35
64908;BME280;64365;-1.756;110.040;2023-01-31T03:29:28;102247.56;;;6.11;86.35
64908;BME280;64365;-1.756;110.040;2023-01-31T03:32:02;102233.41;;;6.07;87.38
64908;BME280;64365;-1.756;110.040;2023-01-31T03:34:32;102231.13;;;6.14;86.98
64908;BME280;64365;-1.756;110.040;2023-01-31T03:37:05;102225.84;;;6.14;86.73
64908;BME280;64365;-1.756;110.040;2023-01-31T03:39:37;102216.28;;;6.18;86.81
64908;BME280;64365;-1.756;110.040;2023-01-31T03:42:07;102209.22;;;6.14;87.18
64908;BME280;64365;-1.756;110.040;2023-01-31T03:44:41;102210.19;;;6.18;87.36
64908;BME280;64365;-1.756;110.040;2023-01-31T03:47:16;102212.22;;;6.21;88.12
64908;BME280;64365;-1.756;110.040;2023-01-31T03:49:47;102216.03;;;6.29;87.31
64908;BME280;64365;-1.756;110.040;2023-01-31T03:52:18;102213.69;;;6.27;87.91
64908;BME280;64365;-1.756;110.040;2023-01-31T03:54:52;102218.19;;;6.27;87.84
64908;BME280;64365;-1.756;110.040;2023-01-31T03:57:21;102214.34;;;6.33;88.09
64908;BME280;64365;-1.756;110.040;2023-01-31T03:59:51;102204.28;;;6.35;88.24
64908;BME280;64365;-1.756;110.040;2023-01-31T04:02:22;102197.63;;;6.37;88.32
64908;BME280;64365;-1.756;110.040;2023-01-31T04:04:54;102195.25;;;6.36;88.08
64908;BME280;64365;-1.756;110.040;2023-01-31T04:07:24;102191.94;;;6.44;88.69
64908;BME280;64365;-1.756;110.040;2023-01-31T04:09:50;102192.88;;;6.48;87.90
64908;BME280;64365;-1.756;110.040;2023-01-31T04:12:17;102189.75;;;6.46;88.01
64908;BME280;64365;-1.756;110.040;2023-01-31T04:14:43;102196.31;;;6.49;87.76
64908;BME280;64365;-1.756;110.040;2023-01-31T04:17:10;102189.75;;;6.46;88.44
64908;BME280;64365;-1.756;110.040;2023-01-31T04:19:37;102180.94;;;6.51;88.01
64908;BME280;64365;-1.756;110.040;2023-01-31T04:22:05;102171.06;;;6.43;87.90
64908;BME280;64365;-1.756;110.040;2023-01-31T04:24:31;102177.19;;;6.52;88.56
64908;BME280;64365;-1.756;110.040;2023-01-31T04:26:58;102186.81;;;6.48;88.48
64908;BME280;64365;-1.756;110.040;2023-01-31T04:29:24;102175.78;;;6.46;88.53
64908;BME280;64365;-1.756;110.040;2023-01-31T04:31:51;102182.31;;;6.48;89.11
64908;BME280;64365;-1.756;110.040;2023-01-31T04:34:17;102173.97;;;6.55;88.90
64908;BME280;64365;-1.756;110.040;2023-01-31T04:36:44;102177.19;;;6.52;89.04
64908;BME280;64365;-1.756;110.040;2023-01-31T04:39:12;102174.94;;;6.59;88.84
64908;BME280;64365;-1.756;110.040;2023-01-31T04:41:40;102172.44;;;6.63;88.85
64908;BME280;64365;-1.756;110.040;2023-01-31T04:44:06;102171.06;;;6.65;88.25
64908;BME280;64365;-1.756;110.040;2023-01-31T04:46:33;102179.66;;;6.71;88.41
64908;BME280;64365;-1.756;110.040;2023-01-31T04:48:59;102163.31;;;6.69;88.26
64908;BME280;64365;-1.756;110.040;2023-01-31T04:51:26;102166.75;;;6.69;88.00
64908;BME280;64365;-1.756;110.040;2023-01-31T04:53:53;102169.06;;;6.71;88.61
64908;BME280;64365;-1.756;110.040;2023-01-31T04:56:20;102161.63;;;6.73;88.31
64908;BME280;64365;-1.756;110.040;2023-01-31T04:58:47;102164.75;;;6.75;87.82
64908;BME280;64365;-1.756;110.040;2023-01-31T05:01:14;102161.22;;;6.80;87.98
64908;BME280;64365;-1.756;110.040;2023-01-31T05:03:40;102166.94;;;6.73;87.49
64908;BME280;64365;-1.756;110.040;2023-01-31T05:06:07;102154.78;;;6.72;87.52
64908;BME280;64365;-1.756;110.040;2023-01-31T05:08:34;102166.22;;;6.58;88.01
64908;BME280;64365;-1.756;110.040;2023-01-31T05:11:02;102163.44;;;6.64;88.34
64908;BME280;64365;-1.756;110.040;2023-01-31T05:13:31;102148.69;;;6.63;88.39
64908;BME280;64365;-1.756;110.040;2023-01-31T05:15:58;102156.78;;;6.66;88.25
64908;BME280;64365;-1.756;110.040;2023-01-31T05:18:25;102138.59;;;6.65;87.65
64908;BME280;64365;-1.756;110.040;2023-01-31T05:20:52;102159.63;;;6.70;87.68
64908;BME280;64365;-1.756;110.040;2023-01-31T05:23:19;102156.03;;;6.66;88.52
64908;BME280;64365;-1.756;110.040;2023-01-31T05:25:48;102144.03;;;6.68;87.83
64908;BME280;64365;-1.756;110.040;2023-01-31T05:28:15;102139.56;;;6.69;88.12
64908;BME280;64365;-1.756;110.040;2023-01-31T05:30:44;102135.16;;;6.64;88.07
64908;BME280;64365;-1.756;110.040;2023-01-31T05:33:11;102142.66;;;6.71;88.63
64908;BME280;64365;-1.756;110.040;2023-01-31T05:35:37;102136.47;;;6.76;87.99
64908;BME280;64365;-1.756;110.040;2023-01-31T05:38:06;102137.88;;;6.73;87.81
64908;BME280;64365;-1.756;110.040;2023-01-31T05:40:33;102139.44;;;6.74;87.79
64908;BME280;64365;-1.756;110.040;2023-01-31T05:42:59;102136.78;;;6.74;88.16
64908;BME280;64365;-1.756;110.040;2023-01-31T05:45:26;102126.34;;;6.69;87.71
64908;BME280;64365;-1.756;110.040;2023-01-31T05:47:55;102124.97;;;6.80;87.67
64908;BME280;64365;-1.756;110.040;2023-01-31T05:50:22;102124.41;;;6.83;87.43
64908;BME280;64365;-1.756;110.040;2023-01-31T05:52:49;102127.50;;;6.85;87.64
64908;BME280;64365;-1.756;110.040;2023-01-31T05:55:16;102110.50;;;6.78;87.62
64908;BME280;64365;-1.756;110.040;2023-01-31T05:57:43;102112.84;;;6.79;87.07
64908;BME280;64365;-1.756;110.040;2023-01-31T06:00:11;102117.50;;;6.73;87.98
64908;BME280;64365;-1.756;110.040;2023-01-31T06:02:39;102127.28;;;6.73;87.49
64908;BME280;64365;-1.756;110.040;2023-01-31T06:05:08;102107.97;;;6.64;87.62
64908;BME280;64365;-1.756;110.040;2023-01-31T06:07:35;102098.91;;;6.56;87.62
64908;BME280;64365;-1.756;110.040;2023-01-31T06:10:02;102100.66;;;6.61;87.88
64908;BME280;64365;-1.756;110.040;2023-01-31T06:12:29;102095.97;;;6.57;87.85
64908;BME280;64365;-1.756;110.040;2023-01-31T06:14:56;102100.28;;;6.45;87.92
64908;BME280;64365;-1.756;110.040;2023-01-31T06:17:23;102095.94;;;6.49;88.31
64908;BME280;64365;-1.756;110.040;2023-01-31T06:19:49;102091.09;;;6.42;88.25
64908;BME280;64365;-1.756;110.040;2023-01-31T06:22:18;102091.50;;;6.35;88.97
64908;BME280;64365;-1.756;110.040;2023-01-31T06:24:45;102093.25;;;6.40;88.97
64908;BME280;64365;-1.756;110.040;2023-01-31T06:27:11;102117.19;;;6.44;89.13
64908;BME280;64365;-1.756;110.040;2023-01-31T06:29:38;102100.88;;;6.42;89.46
64908;BME280;64365;-1.756;110.040;2023-01-31T06:32:04;102113.50;;;6.53;89.40
64908;BME280;64365;-1.756;110.040;2023-01-31T06:34:31;102104.38;;;6.60;89.30
64908;BME280;64365;-1.756;110.040;2023-01-31T06:36:58;102100.53;;;6.66;88.91
64908;BME280;64365;-1.756;110.040;2023-01-31T06:39:26;102098.47;;;6.63;89.31
64908;BME280;64365;-1.756;110.040;2023-01-31T06:41:53;102091.34;;;6.63;89.59
64908;BME280;64365;-1.756;110.040;2023-01-31T06:44:19;102086.53;;;6.65;88.89
64908;BME280;64365;-1.756;110.040;2023-01-31T06:46:46;102088.88;;;6.67;89.37
64908;BME280;64365;-1.756;110.040;2023-01-31T06:49:12;102077.84;;;6.73;88.74
64908;BME280;64365;-1.756;110.040;2023-01-31T06:51:39;102077.72;;;6.70;89.55
64908;BME280;64365;-1.756;110.040;2023-01-31T06:54:05;102072.00;;;6.77;89.87
64908;BME280;64365;-1.756;110.040;2023-01-31T06:56:33;102075.28;;;6.82;89.16
64908;BME280;64365;-1.756;110.040;2023-01-31T06:59:00;102072.50;;;6.87;89.16
64908;BME280;64365;-1.756;110.040;2023-01-31T07:01:26;102068.91;;;6.92;89.59
64908;BME280;64365;-1.756;110.040;2023-01-31T07:03:53;102060.69;;;6.94;88.96
64908;BME280;64365;-1.756;110.040;2023-01-31T07:06:20;102061.00;;;7.01;89.18
64908;BME280;64365;-1.756;110.040;2023-01-31T07:08:47;102063.19;;;7.07;88.50
64908;BME280;64365;-1.756;110.040;2023-01-31T07:11:14;102066.78;;;7.12;88.79
64908;BME280;64365;-1.756;110.040;2023-01-31T07:13:41;102077.06;;;7.22;88.45
64908;BME280;64365;-1.756;110.040;2023-01-31T07:16:10;102074.28;;;7.27;87.66
64908;BME280;64365;-1.756;110.040;2023-01-31T07:18:36;102057.97;;;7.34;87.28
64908;BME280;64365;-1.756;110.040;2023-01-31T07:21:03;102060.13;;;7.32;87.44
64908;BME280;64365;-1.756;110.040;2023-01-31T07:23:30;102071.34;;;7.46;87.05
64908;BME280;64365;-1.756;110.040;2023-01-31T07:25:57;102069.94;;;7.40;86.94
64908;BME280;64365;-1.756;110.040;2023-01-31T07:28:26;102063.44;;;7.37;86.88
64908;BME280;64365;-1.756;110.040;2023-01-31T07:30:54;102063.44;;;7.37;87.84
64908;BME280;64365;-1.756;110.040;2023-01-31T07:33:20;102065.13;;;7.42;88.25
64908;BME280;64365;-1.756;110.040;2023-01-31T07:35:47;102069.94;;;7.57;87.90
64908;BME280;64365;-1.756;110.040;2023-01-31T07:38:13;102058.28;;;7.58;87.38
64908;BME280;64365;-1.756;110.040;2023-01-31T07:40:40;102051.91;;;7.59;87.63
64908;BME280;64365;-1.756;110.040;2023-01-31T07:43:07;102051.44;;;7.66;87.00
64908;BME280;64365;-1.756;110.040;2023-01-31T07:45:33;102040.53;;;7.68;86.69
64908;BME280;64365;-1.756;110.040;2023-01-31T07:48:01;102043.66;;;7.70;86.67
64908;BME280;64365;-1.756;110.040;2023-01-31T07:50:28;102036.81;;;7.69;86.49
64908;BME280;64365;-1.756;110.040;2023-01-31T07:52:56;102026.53;;;7.67;86.93
64908;BME280;64365;-1.756;110.040;2023-01-31T07:55:23;102027.78;;;7.70;86.47
64908;BME280;64365;-1.756;110.040;2023-01-31T07:57:49;102027.91;;;7.73;86.40
64908;BME280;64365;-1.756;110.040;2023-01-31T08:00:17;102021.38;;;7.71;86.49
64908;BME280;64365;-1.756;110.040;2023-01-31T08:03:03;102031.03;;;7.75;86.05
64908;BME280;64365;-1.756;110.040;2023-01-31T08:05:47;102023.88;;;7.76;86.38
64908;BME280;64365;-1.756;110.040;2023-01-31T08:08:13;102017.94;;;7.79;85.55
64908;BME280;64365;-1.756;110.040;2023-01-31T08:10:40;102019.53;;;7.71;85.77
64908;BME280;64365;-1.756;110.040;2023-01-31T08:13:06;101996.03;;;7.70;85.82
64908;BME280;64365;-1.756;110.040;2023-01-31T08:15:35;101990.75;;;7.70;85.88
64908;BME280;64365;-1.756;110.040;2023-01-31T08:18:04;102003.78;;;7.75;86.05
64908;BME280;64365;-1.756;110.040;2023-01-31T08:20:30;102004.09;;;7.82;86.48
64908;BME280;64365;-1.756;110.040;2023-01-31T08:22:57;101994.91;;;7.88;85.34
64908;BME280;64365;-1.756;110.040;2023-01-31T08:25:24;101986.03;;;7.84;85.11
64908;BME280;64365;-1.756;110.040;2023-01-31T08:27:53;101993.66;;;7.86;84.70
64908;BME280;64365;-1.756;110.040;2023-01-31T08:30:19;101983.72;;;7.74;84.43
64908;BME280;64365;-1.756;110.040;2023-01-31T08:32:46;102008.31;;;7.74;84.68
64908;BME280;64365;-1.756;110.040;2023-01-31T08:35:14;101991.97;;;7.72;84.86
64908;BME280;64365;-1.756;110.040;2023-01-31T08:37:40;101997.41;;;7.76;84.92
64908;BME280;64365;-1.756;110.040;2023-01-31T08:40:08;101997.41;;;7.76;85.24
64908;BME280;64365;-1.756;110.040;2023-01-31T08:42:35;101992.72;;;7.82;85.03
64908;BME280;64365;-1.756;110.040;2023-01-31T08:45:02;102000.97;;;7.80;84.63
64908;BME280;64365;-1.756;110.040;2023-01-31T08:47:29;101984.47;;;7.83;84.63
64908;BME280;64365;-1.756;110.040;2023-01-31T08:49:56;101988.50;;;7.89;84.18
64908;BME280;64365;-1.756;110.040;2023-01-31T08:52:24;101996.78;;;7.88;84.26
64908;BME280;64365;-1.756;110.040;2023-01-31T08:54:50;101999.88;;;7.90;84.18
64908;BME280;64365;-1.756;110.040;2023-01-31T08:57:17;102022.16;;;7.89;84.15
64908;BME280;64365;-1.756;110.040;2023-01-31T08:59:45;102007.69;;;7.78;84.19
64908;BME280;64365;-1.756;110.040;2023-01-31T09:02:11;101997.09;;;7.86;84.73
64908;BME280;64365;-1.756;110.040;2023-01-31T09:04:38;101989.44;;;7.93;84.04
64908;BME280;64365;-1.756;110.040;2023-01-31T09:07:04;101984.91;;;7.94;84.16
64908;BME280;64365;-1.756;110.040;2023-01-31T09:09:32;101991.13;;;7.98;83.70
64908;BME280;64365;-1.756;110.040;2023-01-31T09:11:59;101981.19;;;7.95;84.00
64908;BME280;64365;-1.756;110.040;2023-01-31T09:14:26;101974.47;;;7.98;83.66
64908;BME280;64365;-1.756;110.040;2023-01-31T09:16:53;101966.53;;;7.98;83.76
64908;BME280;64365;-1.756;110.040;2023-01-31T09:19:20;101958.88;;;8.05;83.25
64908;BME280;64365;-1.756;110.040;2023-01-31T09:21:47;101962.47;;;8.00;83.42
64908;BME280;64365;-1.756;110.040;2023-01-31T09:24:14;101969.78;;;8.03;83.65
64908;BME280;64365;-1.756;110.040;2023-01-31T09:26:42;101957.50;;;7.99;84.22
64908;BME280;64365;-1.756;110.040;2023-01-31T09:29:09;101967.72;;;8.18;83.89
64908;BME280;64365;-1.756;110.040;2023-01-31T09:31:35;101969.41;;;8.22;83.28
64908;BME280;64365;-1.756;110.040;2023-01-31T09:34:02;101965.38;;;8.16;82.73
64908;BME280;64365;-1.756;110.040;2023-01-31T09:36:28;101970.69;;;8.16;82.93
64908;BME280;64365;-1.756;110.040;2023-01-31T09:38:55;101950.63;;;8.06;83.07
64908;BME280;64365;-1.756;110.040;2023-01-31T09:41:25;101960.59;;;8.09;83.40
64908;BME280;64365;-1.756;110.040;2023-01-31T09:43:57;101944.53;;;8.06;83.39
64908;BME280;64365;-1.756;110.040;2023-01-31T09:46:28;101954.38;;;8.05;83.43
64908;BME280;64365;-1.756;110.040;2023-01-31T09:48:59;101957.47;;;8.07;83.13
64908;BME280;64365;-1.756;110.040;2023-01-31T09:51:30;101961.84;;;8.03;83.74
64908;BME280;64365;-1.756;110.040;2023-01-31T09:53:57;101960.00;;;8.04;84.15
64908;BME280;64365;-1.756;110.040;2023-01-31T09:56:31;101963.56;;;8.08;84.38
64908;BME280;64365;-1.756;110.040;2023-01-31T09:59:08;101974.28;;;8.12;83.86
64908;BME280;64365;-1.756;110.040;2023-01-31T10:01:41;101968.34;;;8.15;84.32
64908;BME280;64365;-1.756;110.040;2023-01-31T10:04:21;101960.84;;;8.17;83.86
64908;BME280;64365;-1.756;110.040;2023-01-31T10:06:53;101958.06;;;8.13;84.21
64908;BME280;64365;-1.756;110.040;2023-01-31T10:09:27;101960.53;;;8.18;83.95
64908;BME280;64365;-1.756;110.040;2023-01-31T10:11:58;101940.47;;;8.17;84.29
64908;BME280;64365;-1.756;110.040;2023-01-31T10:14:32;101947.44;;;8.22;83.77
64908;BME280;64365;-1.756;110.040;2023-01-31T10:17:06;101951.97;;;8.21;83.80
64908;BME280;64365;-1.756;110.040;2023-01-31T10:19:41;101942.50;;;8.12;84.38
64908;BME280;64365;-1.756;110.040;2023-01-31T10:22:13;101953.88;;;8.12;84.84
64908;BME280;64365;-1.756;110.040;2023-01-31T10:24:46;101955.41;;;8.13;84.81
64908;BME280;64365;-1.756;110.040;2023-01-31T10:27:18;101951.34;;;8.16;85.41
64908;BME280;64365;-1.756;110.040;2023-01-31T10:29:51;101942.16;;;8.22;85.14
64908;BME280;64365;-1.756;110.040;2023-01-31T10:32:24;101945.72;;;8.26;85.03
64908;BME280;64365;-1.756;110.040;2023-01-31T10:34:58;101947.88;;;8.33;84.96
64908;BME280;64365;-1.756;110.040;2023-01-31T10:37:31;101930.72;;;8.30;85.47
64908;BME280;64365;-1.756;110.040;2023-01-31T10:40:03;101927.59;;;8.37;85.57
64908;BME280;64365;-1.756;110.040;2023-01-31T10:42:33;101934.44;;;8.38;85.97
64908;BME280;64365;-1.756;110.040;2023-01-31T10:45:09;101942.03;;;8.48;86.19
64908;BME280;64365;-1.756;110.040;2023-01-31T10:47:42;101943.59;;;8.49;86.12
64908;BME280;64365;-1.756;110.040;2023-01-31T10:50:14;101937.22;;;8.50;86.30
64908;BME280;64365;-1.756;110.040;2023-01-31T10:52:52;101937.97;;;8.51;86.85
64908;BME280;64365;-1.756;110.040;2023-01-31T10:55:44;101942.22;;;8.43;87.62
64908;BME280;64365;-1.756;110.040;2023-01-31T10:58:15;101943.91;;;8.48;87.38
64908;BME280;64365;-1.756;110.040;2023-01-31T11:00:44;101954.66;;;8.51;87.86
64908;BME280;64365;-1.756;110.040;2023-01-31T11:03:13;101950.28;;;8.55;88.17
64908;BME280;64365;-1.756;110.040;2023-01-31T11:05:46;101950.72;;;8.57;88.31
64908;BME280;64365;-1.756;110.040;2023-01-31T11:08:24;101954.94;;;8.58;88.82
64908;BME280;64365;-1.756;110.040;2023-01-31T11:10:54;101943.84;;;8.56;88.34
64908;BME280;64365;-1.756;110.040;2023-01-31T11:13:21;101951.44;;;8.67;88.25
64908;BME280;64365;-1.756;110.040;2023-01-31T11:15:51;101951.31;;;8.63;88.41
64908;BME280;64365;-1.756;110.040;2023-01-31T11:18:28;101945.25;;;8.63;88.68
64908;BME280;64365;-1.756;110.040;2023-01-31T11:20:57;101948.22;;;8.61;89.03
64908;BME280;64365;-1.756;110.040;2023-01-31T11:23:27;101943.06;;;8.65;88.78
64908;BME280;64365;-1.756;110.040;2023-01-31T11:25:56;101946.78;;;8.64;88.71
64908;BME280;64365;-1.756;110.040;2023-01-31T11:28:28;101950.03;;;8.69;89.03
64908;BME280;64365;-1.756;110.040;2023-01-31T11:31:00;101939.69;;;8.76;88.56
64908;BME280;64365;-1.756;110.040;2023-01-31T11:33:42;101932.84;;;8.75;88.49
64908;BME280;64365;-1.756;110.040;2023-01-31T11:36:19;101931.41;;;8.78;88.30
64908;BME280;64365;-1.756;110.040;2023-01-31T11:38:55;101929.47;;;8.87;87.97
64908;BME280;64365;-1.756;110.040;2023-01-31T11:41:31;101936.72;;;8.99;87.34
64908;BME280;64365;-1.756;110.040;2023-01-31T11:44:16;101935.16;;;8.98;87.14
64908;BME280;64365;-1.756;110.040;2023-01-31T11:46:48;101923.41;;;9.08;87.03
64908;BME280;64365;-1.756;110.040;2023-01-31T11:49:21;101921.06;;;9.06;86.63
64908;BME280;64365;-1.756;110.040;2023-01-31T11:51:49;101928.06;;;9.11;86.89
64908;BME280;64365;-1.756;110.040;2023-01-31T11:54:19;101929.38;;;9.17;86.56
64908;BME280;64365;-1.756;110.040;2023-01-31T11:56:47;101921.69;;;9.24;86.10
64908;BME280;64365;-1.756;110.040;2023-01-31T11:59:17;101918.72;;;9.26;85.54
64908;BME280;64365;-1.756;110.040;2023-01-31T12:01:48;101909.00;;;9.30;85.56
64908;BME280;64365;-1.756;110.040;2023-01-31T12:04:33;101898.53;;;9.34;85.55
64908;BME280;64365;-1.756;110.040;2023-01-31T12:07:20;101886.47;;;9.36;85.60
64908;BME280;64365;-1.756;110.040;2023-01-31T12:09:47;101892.16;;;9.47;85.35
64908;BME280;64365;-1.756;110.040;2023-01-31T12:12:23;101877.75;;;9.48;85.08
64908;BME280;64365;-1.756;110.040;2023-01-31T12:14:55;101875.78;;;9.57;84.87
64908;BME280;64365;-1.756;110.040;2023-01-31T12:17:28;101883.88;;;9.61;84.49
64908;BME280;64365;-1.756;110.040;2023-01-31T12:20:02;101877.56;;;9.66;83.97
64908;BME280;64365;-1.756;110.040;2023-01-31T12:22:35;101881.44;;;9.68;83.67
64908;BME280;64365;-1.756;110.040;2023-01-31T12:25:13;101878.78;;;9.68;83.84
64908;BME280;64365;-1.756;110.040;2023-01-31T12:27:51;101873.59;;;9.72;83.44
64908;BME280;64365;-1.756;110.040;2023-01-31T12:30:38;101878.56;;;9.73;83.83
64908;BME280;64365;-1.756;110.040;2023-01-31T12:33:21;101873.81;;;9.79;83.46
64908;BME280;64365;-1.756;110.040;2023-01-31T12:36:00;101857.56;;;9.81;83.39
64908;BME280;64365;-1.756;110.040;2023-01-31T12:38:50;101848.38;;;9.78;83.35
64908;BME280;64365;-1.756;110.040;2023-01-31T12:41:28;101868.28;;;9.84;83.07
64908;BME280;64365;-1.756;110.040;2023-01-31T12:44:08;101866.53;;;9.88;83.15
64908;BME280;64365;-1.756;110.040;2023-01-31T12:46:51;101851.06;;;9.90;82.57
64908;BME280;64365;-1.756;110.040;2023-01-31T12:49:31;101850.94;;;9.99;82.48
64908;BME280;64365;-1.756;110.040;2023-01-31T12:52:14;101857.66;;;9.97;82.85
64908;BME280;64365;-1.756;110.040;2023-01-31T12:54:56;101844.72;;;10.07;81.83
64908;BME280;64365;-1.756;110.040;2023-01-31T12:57:34;101850.25;;;10.02;81.51
64908;BME280;64365;-1.756;110.040;2023-01-31T13:00:20;101857.44;;;10.02;82.25